createdAt,value
2019-02-24T00:01:53.255Z,19.93
2019-02-24T00:05:15.920Z,18.43
2019-02-24T00:08:38.522Z,19.83
2019-02-24T00:12:01.109Z,23.23
2019-02-24T00:15:23.408Z,19.30
2019-02-24T00:18:45.821Z,20.93
2019-02-24T00:22:08.272Z,25.40
2019-02-24T00:25:30.720Z,19.10
2019-02-24T00:28:53.186Z,25.77
2019-02-24T00:32:15.799Z,21.50
2019-02-24T00:35:38.181Z,22.37
2019-02-24T00:39:00.300Z,21.70
2019-02-24T00:42:22.980Z,22.60
2019-02-24T00:45:45.102Z,20.67
2019-02-24T00:49:07.560Z,22.07
2019-02-24T00:52:30.005Z,23.93
2019-02-24T00:55:52.212Z,25.47
2019-02-24T00:59:14.689Z,24.93
2019-02-24T01:02:37.162Z,21.07
2019-02-24T01:05:59.664Z,22.13
2019-02-24T01:09:22.054Z,20.80
2019-02-24T01:12:44.450Z,21.50
2019-02-24T01:16:06.721Z,19.60
2019-02-24T01:19:29.024Z,22.37
2019-02-24T01:22:51.676Z,22.37
2019-02-24T01:26:14.626Z,20.20
2019-02-24T01:29:37.213Z,27.93
2019-02-24T01:32:59.765Z,20.83
2019-02-24T01:36:22.672Z,22.50
2019-02-24T01:39:45.204Z,18.20
2019-02-24T01:43:07.267Z,23.73
2019-02-24T01:46:30.013Z,21.57
2019-02-24T01:49:52.717Z,23.27
2019-02-24T01:53:15.205Z,22.23
2019-02-24T01:56:37.645Z,25.40
2019-02-24T02:00:00.484Z,23.30
2019-02-24T02:03:22.614Z,22.60
2019-02-24T02:06:45.241Z,23.30
2019-02-24T02:10:08.068Z,24.07
2019-02-24T02:13:30.506Z,25.03
2019-02-24T02:16:53.266Z,24.07
2019-02-24T02:20:15.773Z,25.90
2019-02-24T02:23:38.251Z,28.13
2019-02-24T02:27:01.015Z,26.57
2019-02-24T02:30:23.501Z,25.63
2019-02-24T02:33:45.702Z,24.80
2019-02-24T02:37:07.898Z,25.40
2019-02-24T02:40:30.406Z,24.93
2019-02-24T02:43:52.906Z,24.43
2019-02-24T02:47:15.403Z,25.73
2019-02-24T02:50:38.125Z,24.13
2019-02-24T02:54:01.032Z,26.60
2019-02-24T02:57:23.805Z,22.90
2019-02-24T03:00:46.737Z,23.30
2019-02-24T03:04:09.449Z,22.27
2019-02-24T03:07:39.946Z,23.73
2019-02-24T03:11:02.712Z,23.73
2019-02-24T03:14:24.914Z,22.90
2019-02-24T03:17:47.198Z,23.23
2019-02-24T03:21:09.639Z,20.03
2019-02-24T03:24:32.226Z,22.97
2019-02-24T03:27:54.595Z,20.23
2019-02-24T03:31:16.929Z,20.57
2019-02-24T03:34:39.418Z,24.90
2019-02-24T03:38:01.936Z,25.77
2019-02-24T03:41:24.836Z,25.27
2019-02-24T03:44:47.703Z,23.63
2019-02-24T03:48:10.405Z,22.30
2019-02-24T03:51:33.169Z,25.37
2019-02-24T03:54:56.159Z,26.37
2019-02-24T03:58:26.024Z,23.73
2019-02-24T04:01:48.641Z,23.97
2019-02-24T04:05:11.456Z,22.67
2019-02-24T04:08:33.617Z,28.30
2019-02-24T04:11:55.963Z,24.13
2019-02-24T04:15:18.169Z,23.80
2019-02-24T04:18:40.358Z,22.17
2019-02-24T04:22:03.083Z,23.60
2019-02-24T04:25:25.727Z,23.40
2019-02-24T04:28:48.296Z,18.10
2019-02-24T04:32:10.986Z,19.70
2019-02-24T04:35:33.880Z,19.13
2019-02-24T04:38:56.822Z,21.07
2019-02-24T04:42:19.384Z,19.03
2019-02-24T04:45:42.294Z,21.30
2019-02-24T04:49:04.784Z,18.37
2019-02-24T04:52:26.977Z,19.90
2019-02-24T04:55:49.316Z,19.50
2019-02-24T04:59:12.000Z,20.73
2019-02-24T05:02:34.477Z,19.53
2019-02-24T05:05:57.146Z,16.57
2019-02-24T05:09:19.702Z,21.57
2019-02-24T05:12:41.865Z,18.13
2019-02-24T05:16:04.323Z,18.03
2019-02-24T05:19:26.520Z,16.77
2019-02-24T05:22:49.214Z,18.13
2019-02-24T05:26:11.940Z,19.03
2019-02-24T05:29:34.161Z,18.20
2019-02-24T05:32:56.580Z,20.53
2019-02-24T05:36:19.237Z,22.27
2019-02-24T05:39:41.738Z,20.83
2019-02-24T05:43:04.209Z,19.47
2019-02-24T05:46:26.788Z,23.30
2019-02-24T05:49:48.952Z,19.87
2019-02-24T05:53:11.822Z,22.47
2019-02-24T05:56:34.693Z,23.10
2019-02-24T05:59:57.219Z,21.77
2019-02-24T06:03:19.908Z,20.10
2019-02-24T06:06:42.581Z,24.20
2019-02-24T06:10:05.743Z,18.70
2019-02-24T06:13:28.402Z,18.03
2019-02-24T06:16:51.029Z,19.23
2019-02-24T06:20:13.571Z,19.77
2019-02-24T06:23:36.195Z,20.70
2019-02-24T06:26:58.837Z,21.60
2019-02-24T06:30:20.949Z,22.30
2019-02-24T06:33:43.895Z,21.97
2019-02-24T06:37:06.596Z,19.13
2019-02-24T06:40:29.306Z,19.60
2019-02-24T06:43:51.372Z,16.67
2019-02-24T06:47:13.941Z,20.10
2019-02-24T06:50:57.756Z,19.33
2019-02-24T06:54:20.616Z,20.40
2019-02-24T06:57:43.236Z,19.87
2019-02-24T07:01:05.887Z,18.07
2019-02-24T07:04:28.373Z,15.83
2019-02-24T07:07:50.763Z,19.90
2019-02-24T07:11:13.394Z,18.23
2019-02-24T07:14:35.802Z,18.60
2019-02-24T07:17:58.169Z,21.47
2019-02-24T07:21:20.658Z,19.63
2019-02-24T07:24:43.122Z,20.60
2019-02-24T07:28:05.589Z,19.33
2019-02-24T07:31:28.154Z,19.23
2019-02-24T07:34:50.945Z,19.83
2019-02-24T07:38:13.043Z,19.63
2019-02-24T07:41:35.582Z,19.53
2019-02-24T07:44:57.819Z,17.87
2019-02-24T07:48:20.545Z,21.53
2019-02-24T07:51:43.286Z,18.90
2019-02-24T07:55:05.550Z,23.60
2019-02-24T07:58:27.706Z,22.67
2019-02-24T08:01:49.847Z,20.33
2019-02-24T08:05:12.672Z,22.37
2019-02-24T08:08:35.197Z,21.23
2019-02-24T08:11:57.857Z,20.27
2019-02-24T08:15:20.513Z,19.00
2019-02-24T08:18:49.289Z,18.77
2019-02-24T08:22:07.217Z,24.07
2019-02-24T08:25:29.912Z,21.13
2019-02-24T08:28:52.641Z,20.27
2019-02-24T08:32:15.361Z,22.77
2019-02-24T08:35:38.266Z,19.87
2019-02-24T08:39:01.293Z,20.70
2019-02-24T08:42:24.040Z,22.17
2019-02-24T08:45:46.694Z,23.73
2019-02-24T08:49:09.181Z,27.93
2019-02-24T08:52:31.856Z,22.60
2019-02-24T08:55:54.390Z,21.80
2019-02-24T08:59:17.043Z,21.10
2019-02-24T09:02:39.566Z,17.87
2019-02-24T09:06:02.246Z,21.53
2019-02-24T09:09:24.457Z,19.10
2019-02-24T09:12:46.541Z,18.63
2019-02-24T09:16:08.713Z,17.60
2019-02-24T09:19:31.186Z,20.87
2019-02-24T09:22:53.573Z,19.40
2019-02-24T09:26:16.111Z,19.33
2019-02-24T09:29:38.855Z,19.93
2019-02-24T09:33:01.301Z,17.73
2019-02-24T09:36:24.137Z,22.37
2019-02-24T09:39:46.794Z,15.77
2019-02-24T09:43:09.128Z,17.07
2019-02-24T09:46:31.914Z,19.03
2019-02-24T09:49:54.348Z,18.43
2019-02-24T09:53:17.184Z,19.53
2019-02-24T09:56:39.783Z,20.27
2019-02-24T10:00:02.708Z,22.23
2019-02-24T10:03:25.272Z,24.20
2019-02-24T10:06:48.168Z,16.90
2019-02-24T10:10:11.216Z,20.10
2019-02-24T10:13:33.805Z,20.13
2019-02-24T10:16:56.378Z,20.10
2019-02-24T10:20:18.981Z,18.10
2019-02-24T10:23:41.539Z,19.43
2019-02-24T10:27:04.053Z,23.70
2019-02-24T10:30:26.418Z,17.90
2019-02-24T10:33:49.083Z,15.87
2019-02-24T10:37:11.484Z,18.40
2019-02-24T10:40:33.902Z,19.03
2019-02-24T10:43:56.339Z,20.83
2019-02-24T10:47:19.042Z,16.50
2019-02-24T10:50:41.522Z,16.53
2019-02-24T10:54:03.942Z,15.20
2019-02-24T10:57:26.101Z,15.53
2019-02-24T11:00:48.442Z,14.43
2019-02-24T11:04:10.885Z,16.40
2019-02-24T11:07:33.404Z,15.20
2019-02-24T11:10:56.047Z,16.67
2019-02-24T11:14:18.904Z,14.33
2019-02-24T11:17:41.430Z,15.03
2019-02-24T11:21:04.149Z,15.00
2019-02-24T11:24:26.353Z,18.20
2019-02-24T11:27:48.726Z,14.00
2019-02-24T11:31:11.248Z,17.50
2019-02-24T11:34:33.968Z,14.53
2019-02-24T11:37:56.809Z,12.17
2019-02-24T11:41:19.582Z,13.93
2019-02-24T11:44:42.516Z,14.43
2019-02-24T11:48:05.174Z,11.67
2019-02-24T11:51:27.815Z,13.47
2019-02-24T11:54:50.519Z,13.50
2019-02-24T11:58:13.197Z,13.23
2019-02-24T12:01:35.570Z,12.43
2019-02-24T12:04:58.050Z,14.50
2019-02-24T12:08:20.405Z,13.00
2019-02-24T12:11:42.817Z,11.17
2019-02-24T12:15:05.998Z,11.47
2019-02-24T12:18:28.242Z,13.53
2019-02-24T12:21:50.918Z,12.33
2019-02-24T12:25:13.565Z,13.67
2019-02-24T12:28:35.857Z,11.33
2019-02-24T12:31:58.301Z,11.13
2019-02-24T12:35:20.679Z,11.57
2019-02-24T12:38:43.102Z,12.47
2019-02-24T12:42:05.538Z,10.37
2019-02-24T12:45:28.017Z,9.97
2019-02-24T12:48:50.534Z,10.80
2019-02-24T12:52:13.095Z,10.50
2019-02-24T12:55:35.853Z,8.50
2019-02-24T12:58:58.458Z,10.50
2019-02-24T13:02:21.112Z,9.93
2019-02-24T13:05:43.318Z,7.83
2019-02-24T13:09:08.478Z,11.83
2019-02-24T13:12:30.980Z,13.20
2019-02-24T13:15:53.577Z,7.23
2019-02-24T13:19:16.097Z,8.80
2019-02-24T13:22:39.197Z,9.97
2019-02-24T13:26:01.770Z,9.33
2019-02-24T13:29:24.443Z,9.83
2019-02-24T13:32:46.929Z,7.80
2019-02-24T13:36:09.166Z,9.73
2019-02-24T13:39:31.924Z,9.27
2019-02-24T13:42:54.476Z,11.30
2019-02-24T13:46:17.176Z,9.17
2019-02-24T13:49:39.760Z,8.67
2019-02-24T13:53:02.212Z,7.70
2019-02-24T13:56:24.382Z,8.97
2019-02-24T13:59:46.505Z,9.20
2019-02-24T14:03:08.809Z,6.83
2019-02-24T14:06:31.258Z,11.73
2019-02-24T14:09:54.039Z,7.70
2019-02-24T14:13:16.543Z,8.30
2019-02-24T14:16:39.048Z,10.73
2019-02-24T14:20:01.463Z,10.07
2019-02-24T14:23:23.964Z,10.53
2019-02-24T14:26:46.346Z,14.40
2019-02-24T14:30:10.884Z,11.43
2019-02-24T14:33:33.582Z,13.97
2019-02-24T14:36:57.155Z,8.43
2019-02-24T14:40:20.045Z,7.60
2019-02-24T14:43:42.567Z,7.70
2019-02-24T14:47:04.885Z,8.60
2019-02-24T14:50:27.667Z,13.03
2019-02-24T14:53:50.193Z,8.17
2019-02-24T14:57:12.577Z,9.90
2019-02-24T15:00:35.329Z,10.30
2019-02-24T15:03:58.013Z,10.43
2019-02-24T15:07:20.538Z,10.43
2019-02-24T15:10:43.085Z,10.47
2019-02-24T15:14:05.734Z,9.10
2019-02-24T15:17:28.513Z,9.07
2019-02-24T15:20:51.182Z,9.23
2019-02-24T15:24:13.903Z,10.40
2019-02-24T15:27:36.583Z,10.90
2019-02-24T15:30:58.840Z,11.20
2019-02-24T15:34:21.693Z,8.40
2019-02-24T15:37:44.522Z,8.30
2019-02-24T15:41:06.897Z,10.83
2019-02-24T15:44:29.514Z,11.33
2019-02-24T15:47:51.722Z,14.20
2019-02-24T15:51:14.325Z,10.60
2019-02-24T15:54:37.041Z,11.40
2019-02-24T15:57:59.169Z,12.33
2019-02-24T16:01:21.546Z,11.77
2019-02-24T16:04:43.694Z,8.87
2019-02-24T16:08:05.850Z,7.70
2019-02-24T16:11:28.204Z,8.60
2019-02-24T16:14:51.747Z,9.20
2019-02-24T16:18:14.184Z,8.77
2019-02-24T16:21:36.914Z,11.23
2019-02-24T16:24:59.308Z,11.27
2019-02-24T16:28:22.070Z,12.57
2019-02-24T16:31:44.588Z,9.50
2019-02-24T16:35:08.815Z,9.87
2019-02-24T16:38:31.202Z,9.60
2019-02-24T16:41:53.845Z,10.37
2019-02-24T16:45:16.382Z,11.77
2019-02-24T16:48:38.885Z,12.33
2019-02-24T16:52:01.693Z,12.73
2019-02-24T16:55:24.316Z,12.57
2019-02-24T16:58:46.816Z,11.40
2019-02-24T17:02:09.345Z,12.27
2019-02-24T17:05:32.221Z,10.97
2019-02-24T17:09:01.297Z,12.53
2019-02-24T17:12:19.254Z,11.40
2019-02-24T17:15:42.043Z,12.40
2019-02-24T17:19:04.824Z,9.80
2019-02-24T17:22:27.570Z,14.13
2019-02-24T17:25:50.294Z,10.53
2019-02-24T17:29:12.957Z,13.00
2019-02-24T17:32:35.916Z,9.80
2019-02-24T17:36:07.679Z,8.30
2019-02-24T17:39:30.260Z,8.83
2019-02-24T17:42:52.965Z,8.43
2019-02-24T17:46:15.661Z,9.57
2019-02-24T17:49:38.569Z,9.97
2019-02-24T17:53:01.117Z,11.87
2019-02-24T17:56:23.671Z,14.73
2019-02-24T17:59:46.233Z,10.93
2019-02-24T18:03:08.594Z,10.97
2019-02-24T18:06:31.326Z,12.03
2019-02-24T18:09:53.691Z,13.07
2019-02-24T18:13:16.210Z,15.03
2019-02-24T18:16:38.718Z,15.97
2019-02-24T18:20:01.240Z,31.03
2019-02-24T18:23:23.873Z,20.47
2019-02-24T18:26:46.934Z,32.30
2019-02-24T18:30:12.677Z,12.10
2019-02-24T18:33:35.462Z,13.00
2019-02-24T18:36:57.927Z,25.10
2019-02-24T18:40:20.489Z,21.10
2019-02-24T18:43:43.064Z,15.33
2019-02-24T18:47:05.570Z,27.07
2019-02-24T18:50:28.293Z,12.67
2019-02-24T18:53:50.924Z,13.43
2019-02-24T18:57:13.595Z,15.73
2019-02-24T19:00:36.295Z,20.73
2019-02-24T19:03:58.704Z,24.13
2019-02-24T19:07:21.141Z,18.73
2019-02-24T19:10:43.637Z,14.00
2019-02-24T19:14:06.140Z,15.47
2019-02-24T19:17:28.597Z,16.60
2019-02-24T19:20:50.995Z,20.33
2019-02-24T19:24:13.755Z,21.33
2019-02-24T19:27:36.216Z,15.20
2019-02-24T19:30:58.698Z,17.57
2019-02-24T19:34:21.389Z,17.07
2019-02-24T19:37:44.201Z,15.27
2019-02-24T19:41:06.666Z,21.73
2019-02-24T19:44:29.086Z,14.97
2019-02-24T19:47:51.611Z,14.07
2019-02-24T19:51:14.006Z,15.03
2019-02-24T19:54:36.425Z,13.10
2019-02-24T19:57:59.156Z,10.90
2019-02-24T20:01:21.563Z,11.53
2019-02-24T20:04:44.266Z,18.00
2019-02-24T20:08:06.705Z,15.20
2019-02-24T20:11:29.184Z,16.47
2019-02-24T20:14:52.011Z,16.27
2019-02-24T20:18:14.655Z,17.43
2019-02-24T20:21:36.949Z,22.13
2019-02-24T20:24:59.563Z,22.37
2019-02-24T20:28:22.145Z,14.33
2019-02-24T20:31:45.043Z,17.07
2019-02-24T20:35:07.376Z,23.57
2019-02-24T20:38:29.396Z,18.13
2019-02-24T20:41:51.846Z,16.23
2019-02-24T20:45:15.061Z,19.43
2019-02-24T20:48:37.339Z,17.20
2019-02-24T20:51:59.785Z,17.33
2019-02-24T20:55:22.309Z,19.87
2019-02-24T20:58:44.757Z,22.27
2019-02-24T21:02:07.228Z,23.13
2019-02-24T21:05:30.653Z,18.80
2019-02-24T21:08:53.172Z,26.63
2019-02-24T21:12:15.566Z,32.03
2019-02-24T21:15:38.026Z,20.50
2019-02-24T21:19:00.560Z,19.77
2019-02-24T21:22:23.248Z,19.40
2019-02-24T21:25:45.671Z,18.47
2019-02-24T21:29:07.888Z,18.77
2019-02-24T21:32:30.628Z,27.73
2019-02-24T21:35:52.893Z,20.73
2019-02-24T21:39:15.668Z,21.30
2019-02-24T21:42:38.136Z,22.83
2019-02-24T21:46:00.894Z,16.13
2019-02-24T21:49:23.625Z,17.93
2019-02-24T21:52:45.963Z,20.17
2019-02-24T21:56:08.810Z,18.87
2019-02-24T21:59:36.964Z,18.43
2019-02-24T22:02:55.992Z,18.23
2019-02-24T22:06:18.801Z,19.37
2019-02-24T22:09:41.517Z,19.67
2019-02-24T22:13:04.137Z,17.23
2019-02-24T22:16:26.794Z,18.83
2019-02-24T22:19:49.009Z,22.80
2019-02-24T22:23:11.465Z,20.17
2019-02-24T22:26:34.065Z,19.50
2019-02-24T22:29:56.885Z,22.17
2019-02-24T22:33:19.237Z,21.23
2019-02-24T22:36:41.574Z,21.63
2019-02-24T22:40:04.528Z,22.23
2019-02-24T22:43:27.160Z,20.73
2019-02-24T22:46:50.512Z,20.90
2019-02-24T22:50:13.599Z,21.47
2019-02-24T22:53:35.775Z,24.37
2019-02-24T22:56:58.005Z,23.97
2019-02-24T23:00:54.469Z,22.33
2019-02-24T23:04:17.109Z,23.73
2019-02-24T23:07:39.772Z,22.13
2019-02-24T23:11:02.445Z,31.83
2019-02-24T23:14:24.940Z,21.00
2019-02-24T23:17:47.137Z,20.97
2019-02-24T23:21:09.677Z,20.67
2019-02-24T23:24:32.064Z,21.93
2019-02-24T23:27:54.245Z,23.90
2019-02-24T23:31:16.804Z,22.40
2019-02-24T23:34:39.293Z,20.60
2019-02-24T23:38:01.766Z,19.17
2019-02-24T23:41:24.236Z,21.23
2019-02-24T23:44:46.901Z,18.70
2019-02-24T23:48:09.063Z,21.20
2019-02-24T23:51:31.804Z,19.17
2019-02-24T23:54:54.078Z,19.63
2019-02-24T23:58:16.866Z,20.70
